sensor_id;sensor_type;location;lat;lon;timestamp;pressure;altitude;pressure_sealevel;temperature;humidity
52032;BME280;38044;45.148;39.604;2024-03-25T00:02:14;100465.72;;;5.75;88.56
52032;BME280;38044;45.148;39.604;2024-03-25T00:04:40;100484.19;;;5.81;88.64
52032;BME280;38044;45.148;39.604;2024-03-25T00:07:06;100465.22;;;5.73;88.26
52032;BME280;38044;45.148;39.604;2024-03-25T00:09:32;100474.34;;;5.92;88.09
52032;BME280;38044;45.148;39.604;2024-03-25T00:11:57;100466.34;;;5.87;87.87
52032;BME280;38044;45.148;39.604;2024-03-25T00:14:23;100466.38;;;5.97;87.37
52032;BME280;38044;45.148;39.604;2024-03-25T00:16:49;100453.84;;;6.03;86.99
52032;BME280;38044;45.148;39.604;2024-03-25T00:19:15;100442.38;;;6.02;86.66
52032;BME280;38044;45.148;39.604;2024-03-25T00:21:41;100448.81;;;6.01;86.24
52032;BME280;38044;45.148;39.604;2024-03-25T00:24:08;100442.31;;;5.92;86.50
52032;BME280;38044;45.148;39.604;2024-03-25T00:26:34;100443.72;;;6.00;86.29
52032;BME280;38044;45.148;39.604;2024-03-25T00:29:00;100454.13;;;5.96;86.16
52032;BME280;38044;45.148;39.604;2024-03-25T00:31:25;100430.53;;;5.78;86.39
52032;BME280;38044;45.148;39.604;2024-03-25T00:33:51;100436.97;;;5.82;86.86
52032;BME280;38044;45.148;39.604;2024-03-25T00:36:17;100437.22;;;5.75;86.90
52032;BME280;38044;45.148;39.604;2024-03-25T00:38:43;100449.47;;;5.76;87.08
52032;BME280;38044;45.148;39.604;2024-03-25T00:41:09;100453.44;;;5.69;87.30
52032;BME280;38044;45.148;39.604;2024-03-25T00:43:35;100451.28;;;5.60;87.48
52032;BME280;38044;45.148;39.604;2024-03-25T00:46:01;100420.31;;;5.54;87.77
52032;BME280;38044;45.148;39.604;2024-03-25T00:48:26;100433.63;;;5.49;87.93
52032;BME280;38044;45.148;39.604;2024-03-25T00:50:52;100428.81;;;5.46;88.08
52032;BME280;38044;45.148;39.604;2024-03-25T00:53:18;100434.44;;;5.50;88.31
52032;BME280;38044;45.148;39.604;2024-03-25T00:55:44;100428.28;;;5.44;88.32
52032;BME280;38044;45.148;39.604;2024-03-25T00:58:10;100420.50;;;5.32;88.50
52032;BME280;38044;45.148;39.604;2024-03-25T01:00:36;100414.34;;;5.27;88.98
52032;BME280;38044;45.148;39.604;2024-03-25T01:03:02;100423.94;;;5.28;89.00
52032;BME280;38044;45.148;39.604;2024-03-25T01:05:28;100409.19;;;5.15;89.64
52032;BME280;38044;45.148;39.604;2024-03-25T01:07:54;100426.25;;;5.14;89.75
52032;BME280;38044;45.148;39.604;2024-03-25T01:10:20;100418.28;;;5.19;90.12
52032;BME280;38044;45.148;39.604;2024-03-25T01:12:46;100408.38;;;5.09;90.13
52032;BME280;38044;45.148;39.604;2024-03-25T01:15:12;100400.81;;;4.91;89.91
52032;BME280;38044;45.148;39.604;2024-03-25T01:17:38;100407.00;;;5.02;90.30
52032;BME280;38044;45.148;39.604;2024-03-25T01:20:04;100410.47;;;5.02;90.11
52032;BME280;38044;45.148;39.604;2024-03-25T01:22:31;100401.09;;;4.94;90.05
52032;BME280;38044;45.148;39.604;2024-03-25T01:24:57;100383.22;;;4.90;89.69
52032;BME280;38044;45.148;39.604;2024-03-25T01:27:23;100382.13;;;4.86;89.81
52032;BME280;38044;45.148;39.604;2024-03-25T01:29:49;100383.47;;;4.88;90.25
52032;BME280;38044;45.148;39.604;2024-03-25T01:32:15;100375.75;;;4.87;90.30
52032;BME280;38044;45.148;39.604;2024-03-25T01:34:42;100385.41;;;4.98;90.59
52032;BME280;38044;45.148;39.604;2024-03-25T01:37:08;100388.59;;;5.00;90.58
52032;BME280;38044;45.148;39.604;2024-03-25T01:39:34;100376.00;;;4.85;90.79
52032;BME280;38044;45.148;39.604;2024-03-25T01:42:00;100391.22;;;4.90;90.57
52032;BME280;38044;45.148;39.604;2024-03-25T01:44:25;100381.59;;;4.89;90.94
52032;BME280;38044;45.148;39.604;2024-03-25T01:46:51;100390.06;;;4.81;90.86
52032;BME280;38044;45.148;39.604;2024-03-25T01:49:19;100380.72;;;4.73;91.21
52032;BME280;38044;45.148;39.604;2024-03-25T01:51:45;100375.59;;;4.61;91.44
52032;BME280;38044;45.148;39.604;2024-03-25T01:54:11;100376.56;;;4.50;91.22
52032;BME280;38044;45.148;39.604;2024-03-25T01:56:41;100382.41;;;4.47;91.49
52032;BME280;38044;45.148;39.604;2024-03-25T01:59:08;100376.56;;;4.50;91.62
52032;BME280;38044;45.148;39.604;2024-03-25T02:01:34;100378.09;;;4.46;91.95
52032;BME280;38044;45.148;39.604;2024-03-25T02:04:00;100380.19;;;4.39;91.74
52032;BME280;38044;45.148;39.604;2024-03-25T02:06:27;100373.22;;;4.33;92.01
52032;BME280;38044;45.148;39.604;2024-03-25T02:08:55;100373.22;;;4.33;91.96
52032;BME280;38044;45.148;39.604;2024-03-25T02:11:23;100364.19;;;4.34;92.53
52032;BME280;38044;45.148;39.604;2024-03-25T02:13:50;100364.44;;;4.32;92.86
52032;BME280;38044;45.148;39.604;2024-03-25T02:16:16;100353.16;;;4.20;92.45
52032;BME280;38044;45.148;39.604;2024-03-25T02:18:42;100356.09;;;4.23;93.03
52032;BME280;38044;45.148;39.604;2024-03-25T02:21:08;100371.59;;;4.32;93.41
52032;BME280;38044;45.148;39.604;2024-03-25T02:23:34;100373.75;;;4.29;93.45
52032;BME280;38044;45.148;39.604;2024-03-25T02:26:01;100351.78;;;4.17;93.61
52032;BME280;38044;45.148;39.604;2024-03-25T02:28:26;100358.22;;;4.21;93.45
52032;BME280;38044;45.148;39.604;2024-03-25T02:30:52;100363.78;;;4.20;93.43
52032;BME280;38044;45.148;39.604;2024-03-25T02:33:18;100364.56;;;4.15;92.88
52032;BME280;38044;45.148;39.604;2024-03-25T02:35:44;100366.91;;;4.12;93.28
52032;BME280;38044;45.148;39.604;2024-03-25T02:38:10;100365.06;;;4.12;93.84
52032;BME280;38044;45.148;39.604;2024-03-25T02:40:37;100364.53;;;4.10;93.74
52032;BME280;38044;45.148;39.604;2024-03-25T02:43:03;100369.84;;;4.10;93.92
52032;BME280;38044;45.148;39.604;2024-03-25T02:45:29;100344.75;;;4.01;94.16
52032;BME280;38044;45.148;39.604;2024-03-25T02:47:55;100357.72;;;3.97;94.50
52032;BME280;38044;45.148;39.604;2024-03-25T02:50:21;100377.25;;;4.08;94.32
52032;BME280;38044;45.148;39.604;2024-03-25T02:52:47;100370.84;;;4.04;94.36
52032;BME280;38044;45.148;39.604;2024-03-25T02:55:13;100366.03;;;4.01;94.42
52032;BME280;38044;45.148;39.604;2024-03-25T02:57:39;100370.25;;;3.97;94.39
52032;BME280;38044;45.148;39.604;2024-03-25T03:00:05;100363.31;;;3.96;94.64
52032;BME280;38044;45.148;39.604;2024-03-25T03:02:31;100359.00;;;3.90;94.49
52032;BME280;38044;45.148;39.604;2024-03-25T03:04:57;100364.00;;;3.86;94.43
52032;BME280;38044;45.148;39.604;2024-03-25T03:07:24;100349.78;;;3.70;94.44
52032;BME280;38044;45.148;39.604;2024-03-25T03:09:49;100364.78;;;3.81;94.64
52032;BME280;38044;45.148;39.604;2024-03-25T03:12:15;100343.31;;;3.66;94.24
52032;BME280;38044;45.148;39.604;2024-03-25T03:14:41;100363.66;;;3.77;94.48
52032;BME280;38044;45.148;39.604;2024-03-25T03:17:07;100364.22;;;3.79;94.21
52032;BME280;38044;45.148;39.604;2024-03-25T03:19:33;100355.66;;;3.72;94.77
52032;BME280;38044;45.148;39.604;2024-03-25T03:21:59;100369.25;;;3.76;94.77
52032;BME280;38044;45.148;39.604;2024-03-25T03:24:24;100371.94;;;3.81;94.83
52032;BME280;38044;45.148;39.604;2024-03-25T03:26:50;100372.47;;;3.78;95.02
52032;BME280;38044;45.148;39.604;2024-03-25T03:29:16;100375.97;;;3.83;94.70
52032;BME280;38044;45.148;39.604;2024-03-25T03:31:43;100385.69;;;4.00;95.10
52032;BME280;38044;45.148;39.604;2024-03-25T03:34:09;100363.31;;;3.96;94.62
52032;BME280;38044;45.148;39.604;2024-03-25T03:36:35;100378.56;;;4.05;94.25
52032;BME280;38044;45.148;39.604;2024-03-25T03:39:07;100361.63;;;4.17;93.91
52032;BME280;38044;45.148;39.604;2024-03-25T03:41:36;100385.75;;;4.37;93.15
52032;BME280;38044;45.148;39.604;2024-03-25T03:44:02;100359.41;;;4.36;92.09
52032;BME280;38044;45.148;39.604;2024-03-25T03:46:28;100364.28;;;4.44;91.19
52032;BME280;38044;45.148;39.604;2024-03-25T03:48:54;100384.97;;;4.74;91.01
52032;BME280;38044;45.148;39.604;2024-03-25T03:51:20;100383.84;;;5.07;90.57
52032;BME280;38044;45.148;39.604;2024-03-25T03:53:45;100369.03;;;5.32;89.44
52032;BME280;38044;45.148;39.604;2024-03-25T03:56:11;100369.16;;;5.62;88.55
52032;BME280;38044;45.148;39.604;2024-03-25T03:58:37;100376.75;;;6.32;87.31
52032;BME280;38044;45.148;39.604;2024-03-25T04:01:03;100375.69;;;6.84;85.06
52032;BME280;38044;45.148;39.604;2024-03-25T04:03:30;100375.94;;;7.58;81.75
52032;BME280;38044;45.148;39.604;2024-03-25T04:05:56;100385.13;;;8.35;79.77
52032;BME280;38044;45.148;39.604;2024-03-25T04:08:22;100376.50;;;9.02;76.58
52032;BME280;38044;45.148;39.604;2024-03-25T04:10:48;100367.50;;;9.79;74.07
52032;BME280;38044;45.148;39.604;2024-03-25T04:13:14;100375.41;;;10.59;70.75
52032;BME280;38044;45.148;39.604;2024-03-25T04:15:40;100373.06;;;11.27;68.21
52032;BME280;38044;45.148;39.604;2024-03-25T04:18:07;100363.25;;;11.86;65.36
52032;BME280;38044;45.148;39.604;2024-03-25T04:20:41;100394.19;;;12.88;64.27
52032;BME280;38044;45.148;39.604;2024-03-25T04:23:07;100395.53;;;13.30;60.80
52032;BME280;38044;45.148;39.604;2024-03-25T04:25:36;100386.59;;;14.04;58.11
52032;BME280;38044;45.148;39.604;2024-03-25T04:28:07;100402.88;;;14.86;55.98
52032;BME280;38044;45.148;39.604;2024-03-25T04:30:33;100396.13;;;15.09;54.32
52032;BME280;38044;45.148;39.604;2024-03-25T04:33:00;100395.53;;;15.63;52.63
52032;BME280;38044;45.148;39.604;2024-03-25T04:35:26;100399.75;;;16.03;51.06
52032;BME280;38044;45.148;39.604;2024-03-25T04:37:52;100396.84;;;16.74;50.69
52032;BME280;38044;45.148;39.604;2024-03-25T04:40:18;100398.56;;;16.79;49.14
52032;BME280;38044;45.148;39.604;2024-03-25T04:42:45;100387.56;;;16.75;48.56
52032;BME280;38044;45.148;39.604;2024-03-25T04:45:11;100395.88;;;16.58;48.12
52032;BME280;38044;45.148;39.604;2024-03-25T04:47:40;100377.31;;;16.14;48.58
52032;BME280;38044;45.148;39.604;2024-03-25T04:50:06;100384.91;;;16.21;49.13
52032;BME280;38044;45.148;39.604;2024-03-25T04:52:32;100386.63;;;16.05;49.35
52032;BME280;38044;45.148;39.604;2024-03-25T04:54:58;100374.09;;;15.49;49.93
52032;BME280;38044;45.148;39.604;2024-03-25T04:57:24;100377.84;;;13.98;52.74
52032;BME280;38044;45.148;39.604;2024-03-25T04:59:50;100367.38;;;12.82;56.45
52032;BME280;38044;45.148;39.604;2024-03-25T05:02:16;100365.84;;;12.14;58.32
52032;BME280;38044;45.148;39.604;2024-03-25T05:04:42;100361.41;;;11.95;59.27
52032;BME280;38044;45.148;39.604;2024-03-25T05:07:07;100351.81;;;12.48;58.86
52032;BME280;38044;45.148;39.604;2024-03-25T05:09:33;100359.72;;;13.99;56.14
52032;BME280;38044;45.148;39.604;2024-03-25T05:11:59;100366.38;;;13.75;56.10
52032;BME280;38044;45.148;39.604;2024-03-25T05:14:25;100362.09;;;13.57;56.45
52032;BME280;38044;45.148;39.604;2024-03-25T05:16:51;100359.41;;;14.09;55.59
52032;BME280;38044;45.148;39.604;2024-03-25T05:19:18;100349.63;;;15.07;53.27
52032;BME280;38044;45.148;39.604;2024-03-25T05:21:44;100360.59;;;15.70;51.78
52032;BME280;38044;45.148;39.604;2024-03-25T05:24:10;100367.28;;;16.27;50.97
52032;BME280;38044;45.148;39.604;2024-03-25T05:26:36;100362.97;;;16.59;50.48
52032;BME280;38044;45.148;39.604;2024-03-25T05:29:02;100358.09;;;18.00;49.24
52032;BME280;38044;45.148;39.604;2024-03-25T05:31:28;100367.81;;;18.57;46.56
52032;BME280;38044;45.148;39.604;2024-03-25T05:33:54;100360.66;;;18.81;46.13
52032;BME280;38044;45.148;39.604;2024-03-25T05:36:20;100343.66;;;18.72;45.90
52032;BME280;38044;45.148;39.604;2024-03-25T05:38:46;100362.34;;;18.57;45.39
52032;BME280;38044;45.148;39.604;2024-03-25T05:41:12;100360.69;;;18.68;44.97
52032;BME280;38044;45.148;39.604;2024-03-25T05:43:38;100362.16;;;18.50;46.06
52032;BME280;38044;45.148;39.604;2024-03-25T05:46:04;100369.91;;;18.64;44.89
52032;BME280;38044;45.148;39.604;2024-03-25T05:48:30;100361.75;;;18.80;45.49
52032;BME280;38044;45.148;39.604;2024-03-25T05:51:00;100352.97;;;19.02;44.64
52032;BME280;38044;45.148;39.604;2024-03-25T05:53:30;100352.78;;;19.27;44.67
52032;BME280;38044;45.148;39.604;2024-03-25T05:55:56;100354.91;;;19.53;44.29
52032;BME280;38044;45.148;39.604;2024-03-25T05:58:22;100336.09;;;19.48;43.69
52032;BME280;38044;45.148;39.604;2024-03-25T06:00:49;100337.63;;;19.80;42.72
52032;BME280;38044;45.148;39.604;2024-03-25T06:03:15;100345.81;;;19.65;42.52
52032;BME280;38044;45.148;39.604;2024-03-25T06:05:41;100332.94;;;19.46;42.73
52032;BME280;38044;45.148;39.604;2024-03-25T06:08:07;100339.16;;;19.62;42.79
52032;BME280;38044;45.148;39.604;2024-03-25T06:10:41;100330.78;;;19.90;43.26
52032;BME280;38044;45.148;39.604;2024-03-25T06:13:07;100330.78;;;20.29;40.92
52032;BME280;38044;45.148;39.604;2024-03-25T06:15:33;100314.84;;;20.12;41.56
52032;BME280;38044;45.148;39.604;2024-03-25T06:17:59;100314.09;;;19.92;41.67
52032;BME280;38044;45.148;39.604;2024-03-25T06:20:24;100319.03;;;19.86;42.05
52032;BME280;38044;45.148;39.604;2024-03-25T06:22:50;100334.38;;;19.94;41.29
52032;BME280;38044;45.148;39.604;2024-03-25T06:25:16;100317.31;;;19.78;41.45
52032;BME280;38044;45.148;39.604;2024-03-25T06:27:43;100319.47;;;19.69;42.06
52032;BME280;38044;45.148;39.604;2024-03-25T06:30:10;100333.34;;;19.64;42.06
52032;BME280;38044;45.148;39.604;2024-03-25T06:32:55;100343.69;;;19.74;42.15
52032;BME280;38044;45.148;39.604;2024-03-25T06:35:39;100333.03;;;19.85;41.98
52032;BME280;38044;45.148;39.604;2024-03-25T06:38:05;100341.72;;;19.90;41.09
52032;BME280;38044;45.148;39.604;2024-03-25T06:40:31;100335.97;;;19.95;41.97
52032;BME280;38044;45.148;39.604;2024-03-25T06:42:57;100334.88;;;20.00;41.98
52032;BME280;38044;45.148;39.604;2024-03-25T06:45:23;100347.16;;;20.10;41.91
52032;BME280;38044;45.148;39.604;2024-03-25T06:47:49;100335.53;;;19.93;42.11
52032;BME280;38044;45.148;39.604;2024-03-25T06:50:15;100342.75;;;20.24;40.23
52032;BME280;38044;45.148;39.604;2024-03-25T06:52:40;100341.31;;;20.31;40.14
52032;BME280;38044;45.148;39.604;2024-03-25T06:55:06;100345.13;;;20.26;39.31
52032;BME280;38044;45.148;39.604;2024-03-25T06:57:33;100339.53;;;19.80;40.40
52032;BME280;38044;45.148;39.604;2024-03-25T06:59:59;100347.16;;;19.90;41.80
52032;BME280;38044;45.148;39.604;2024-03-25T07:02:25;100345.72;;;19.96;40.62
52032;BME280;38044;45.148;39.604;2024-03-25T07:04:51;100348.28;;;20.09;40.36
52032;BME280;38044;45.148;39.604;2024-03-25T07:07:17;100341.25;;;20.08;40.87
52032;BME280;38044;45.148;39.604;2024-03-25T07:09:43;100349.31;;;20.00;41.64
52032;BME280;38044;45.148;39.604;2024-03-25T07:12:08;100344.19;;;20.38;39.95
52032;BME280;38044;45.148;39.604;2024-03-25T07:14:34;100343.50;;;20.44;38.86
52032;BME280;38044;45.148;39.604;2024-03-25T07:17:00;100334.63;;;20.28;39.08
52032;BME280;38044;45.148;39.604;2024-03-25T07:19:26;100318.66;;;19.68;39.90
52032;BME280;38044;45.148;39.604;2024-03-25T07:21:52;100325.88;;;19.61;40.38
52032;BME280;38044;45.148;39.604;2024-03-25T07:24:17;100326.88;;;19.52;40.19
52032;BME280;38044;45.148;39.604;2024-03-25T07:26:43;100322.91;;;19.85;40.16
52032;BME280;38044;45.148;39.604;2024-03-25T07:29:09;100322.09;;;20.04;40.66
52032;BME280;38044;45.148;39.604;2024-03-25T07:31:35;100305.56;;;20.16;39.43
52032;BME280;38044;45.148;39.604;2024-03-25T07:34:01;100313.91;;;20.46;39.17
52032;BME280;38044;45.148;39.604;2024-03-25T07:36:26;100315.19;;;20.30;39.42
52032;BME280;38044;45.148;39.604;2024-03-25T07:38:54;100310.31;;;20.42;40.45
52032;BME280;38044;45.148;39.604;2024-03-25T07:41:19;100313.47;;;20.44;39.60
52032;BME280;38044;45.148;39.604;2024-03-25T07:43:45;100302.06;;;20.39;40.21
52032;BME280;38044;45.148;39.604;2024-03-25T07:46:11;100298.63;;;20.65;39.32
52032;BME280;38044;45.148;39.604;2024-03-25T07:48:37;100286.56;;;20.66;39.01
52032;BME280;38044;45.148;39.604;2024-03-25T07:51:03;100294.38;;;20.90;39.21
52032;BME280;38044;45.148;39.604;2024-03-25T07:53:29;100284.16;;;21.14;37.78
52032;BME280;38044;45.148;39.604;2024-03-25T07:55:55;100278.03;;;21.51;38.46
52032;BME280;38044;45.148;39.604;2024-03-25T07:58:21;100274.41;;;21.73;37.90
52032;BME280;38044;45.148;39.604;2024-03-25T08:00:47;100276.25;;;21.99;37.86
52032;BME280;38044;45.148;39.604;2024-03-25T08:05:38;100275.97;;;22.49;37.89
52032;BME280;38044;45.148;39.604;2024-03-25T08:08:04;100261.75;;;22.33;36.58
52032;BME280;38044;45.148;39.604;2024-03-25T08:10:30;100256.78;;;22.49;36.37
52032;BME280;38044;45.148;39.604;2024-03-25T08:12:56;100246.25;;;22.51;36.90
52032;BME280;38044;45.148;39.604;2024-03-25T08:15:22;100249.16;;;22.24;37.99
52032;BME280;38044;45.148;39.604;2024-03-25T08:17:48;100242.59;;;22.84;37.22
52032;BME280;38044;45.148;39.604;2024-03-25T08:20:14;100232.25;;;23.19;36.63
52032;BME280;38044;45.148;39.604;2024-03-25T08:22:39;100239.63;;;23.07;35.69
52032;BME280;38044;45.148;39.604;2024-03-25T08:25:05;100230.97;;;22.98;36.03
52032;BME280;38044;45.148;39.604;2024-03-25T08:27:32;100230.00;;;22.73;35.37
52032;BME280;38044;45.148;39.604;2024-03-25T08:29:58;100232.16;;;22.49;35.98
52032;BME280;38044;45.148;39.604;2024-03-25T08:32:23;100231.69;;;22.40;35.13
52032;BME280;38044;45.148;39.604;2024-03-25T08:34:49;100226.38;;;22.17;36.26
52032;BME280;38044;45.148;39.604;2024-03-25T08:37:15;100212.69;;;22.17;36.73
52032;BME280;38044;45.148;39.604;2024-03-25T08:39:41;100217.88;;;22.25;36.42
52032;BME280;38044;45.148;39.604;2024-03-25T08:42:07;100214.13;;;22.44;36.44
52032;BME280;38044;45.148;39.604;2024-03-25T08:44:32;100204.06;;;22.59;35.50
52032;BME280;38044;45.148;39.604;2024-03-25T08:46:58;100199.16;;;22.35;36.60
52032;BME280;38044;45.148;39.604;2024-03-25T08:49:24;100181.53;;;22.29;35.90
52032;BME280;38044;45.148;39.604;2024-03-25T08:51:50;100190.59;;;22.36;35.43
52032;BME280;38044;45.148;39.604;2024-03-25T08:54:16;100189.78;;;22.32;35.98
52032;BME280;38044;45.148;39.604;2024-03-25T08:56:42;100182.47;;;22.06;36.22
52032;BME280;38044;45.148;39.604;2024-03-25T08:59:07;100174.59;;;21.97;37.20
52032;BME280;38044;45.148;39.604;2024-03-25T09:01:35;100174.34;;;22.13;36.93
52032;BME280;38044;45.148;39.604;2024-03-25T09:04:01;100166.69;;;22.30;35.03
52032;BME280;38044;45.148;39.604;2024-03-25T09:06:27;100163.31;;;22.02;34.62
52032;BME280;38044;45.148;39.604;2024-03-25T09:08:53;100172.09;;;21.81;35.60
52032;BME280;38044;45.148;39.604;2024-03-25T09:11:37;100146.56;;;22.15;35.00
52032;BME280;38044;45.148;39.604;2024-03-25T09:14:03;100139.31;;;22.30;34.30
52032;BME280;38044;45.148;39.604;2024-03-25T09:16:30;100132.53;;;22.16;35.03
52032;BME280;38044;45.148;39.604;2024-03-25T09:18:55;100144.88;;;22.44;34.44
52032;BME280;38044;45.148;39.604;2024-03-25T09:21:21;100135.97;;;22.58;33.24
52032;BME280;38044;45.148;39.604;2024-03-25T09:23:50;100128.97;;;22.64;33.31
52032;BME280;38044;45.148;39.604;2024-03-25T09:26:15;100134.38;;;22.53;34.03
52032;BME280;38044;45.148;39.604;2024-03-25T09:28:41;100132.28;;;22.32;33.71
52032;BME280;38044;45.148;39.604;2024-03-25T09:31:07;100125.63;;;22.30;32.16
52032;BME280;38044;45.148;39.604;2024-03-25T09:33:33;100129.47;;;22.21;32.19
52032;BME280;38044;45.148;39.604;2024-03-25T09:35:59;100114.72;;;22.40;34.27
52032;BME280;38044;45.148;39.604;2024-03-25T09:38:24;100112.56;;;22.75;33.37
52032;BME280;38044;45.148;39.604;2024-03-25T09:40:52;100109.53;;;22.94;32.47
52032;BME280;38044;45.148;39.604;2024-03-25T09:43:33;100093.16;;;23.12;32.21
52032;BME280;38044;45.148;39.604;2024-03-25T09:46:02;100094.31;;;23.00;32.13
52032;BME280;38044;45.148;39.604;2024-03-25T09:48:29;100101.84;;;23.35;32.10
52032;BME280;38044;45.148;39.604;2024-03-25T09:50:55;100081.91;;;23.64;32.31
52032;BME280;38044;45.148;39.604;2024-03-25T09:53:22;100093.31;;;23.87;32.10
52032;BME280;38044;45.148;39.604;2024-03-25T09:55:48;100097.56;;;23.45;31.00
52032;BME280;38044;45.148;39.604;2024-03-25T09:58:15;100102.69;;;23.65;31.53
52032;BME280;38044;45.148;39.604;2024-03-25T10:00:43;100085.38;;;23.32;30.80
52032;BME280;38044;45.148;39.604;2024-03-25T10:03:08;100085.06;;;22.53;29.67
52032;BME280;38044;45.148;39.604;2024-03-25T10:05:34;100076.50;;;22.62;32.65
52032;BME280;38044;45.148;39.604;2024-03-25T10:08:00;100079.28;;;22.69;30.83
52032;BME280;38044;45.148;39.604;2024-03-25T10:10:26;100095.56;;;22.40;29.87
52032;BME280;38044;45.148;39.604;2024-03-25T10:12:55;100070.25;;;21.99;30.77
52032;BME280;38044;45.148;39.604;2024-03-25T10:15:21;100074.44;;;21.86;31.48
52032;BME280;38044;45.148;39.604;2024-03-25T10:17:49;100066.97;;;22.34;30.86
52032;BME280;38044;45.148;39.604;2024-03-25T10:20:17;100056.00;;;22.34;30.13
52032;BME280;38044;45.148;39.604;2024-03-25T10:22:45;100058.84;;;21.93;33.36
52032;BME280;38044;45.148;39.604;2024-03-25T10:25:25;100062.69;;;21.85;33.87
52032;BME280;38044;45.148;39.604;2024-03-25T10:27:55;100054.75;;;21.28;34.13
52032;BME280;38044;45.148;39.604;2024-03-25T10:30:22;100043.22;;;20.44;35.22
52032;BME280;38044;45.148;39.604;2024-03-25T10:33:08;100043.13;;;20.64;34.44
52032;BME280;38044;45.148;39.604;2024-03-25T10:35:38;100046.72;;;20.15;36.00
52032;BME280;38044;45.148;39.604;2024-03-25T10:38:05;100035.31;;;19.83;35.89
52032;BME280;38044;45.148;39.604;2024-03-25T10:40:36;100028.53;;;19.73;37.25
52032;BME280;38044;45.148;39.604;2024-03-25T10:43:07;100030.56;;;19.56;34.73
52032;BME280;38044;45.148;39.604;2024-03-25T10:45:37;100015.88;;;19.38;35.61
52032;BME280;38044;45.148;39.604;2024-03-25T10:48:31;100021.31;;;19.38;34.25
52032;BME280;38044;45.148;39.604;2024-03-25T10:50:58;100018.66;;;19.19;36.53
52032;BME280;38044;45.148;39.604;2024-03-25T10:53:27;100006.34;;;19.05;36.28
52032;BME280;38044;45.148;39.604;2024-03-25T10:55:55;100009.59;;;18.92;36.35
52032;BME280;38044;45.148;39.604;2024-03-25T10:58:22;99988.16;;;18.71;37.03
52032;BME280;38044;45.148;39.604;2024-03-25T11:00:49;99991.88;;;18.62;37.40
52032;BME280;38044;45.148;39.604;2024-03-25T11:03:16;99985.72;;;18.65;37.15
52032;BME280;38044;45.148;39.604;2024-03-25T11:05:42;99991.56;;;18.83;38.69
52032;BME280;38044;45.148;39.604;2024-03-25T11:08:15;99980.78;;;18.90;37.48
52032;BME280;38044;45.148;39.604;2024-03-25T11:10:45;99975.41;;;18.55;37.62
52032;BME280;38044;45.148;39.604;2024-03-25T11:13:16;99992.59;;;18.20;37.91
52032;BME280;38044;45.148;39.604;2024-03-25T11:15:43;99990.13;;;18.15;37.65
52032;BME280;38044;45.148;39.604;2024-03-25T11:18:13;99988.28;;;18.19;38.13
52032;BME280;38044;45.148;39.604;2024-03-25T11:20:39;99971.75;;;17.93;38.25
52032;BME280;38044;45.148;39.604;2024-03-25T11:23:12;99966.69;;;17.75;38.02
52032;BME280;38044;45.148;39.604;2024-03-25T11:25:39;99971.78;;;17.61;36.22
52032;BME280;38044;45.148;39.604;2024-03-25T11:28:05;99982.91;;;17.56;36.48
52032;BME280;38044;45.148;39.604;2024-03-25T11:30:31;99982.75;;;17.65;36.90
52032;BME280;38044;45.148;39.604;2024-03-25T11:33:00;99954.34;;;17.62;37.49
52032;BME280;38044;45.148;39.604;2024-03-25T11:35:27;99970.97;;;17.76;38.51
52032;BME280;38044;45.148;39.604;2024-03-25T11:37:53;99965.03;;;17.87;38.55
52032;BME280;38044;45.148;39.604;2024-03-25T11:40:19;99962.63;;;18.01;37.57
52032;BME280;38044;45.148;39.604;2024-03-25T11:42:46;99968.56;;;18.07;36.89
52032;BME280;38044;45.148;39.604;2024-03-25T11:45:16;99957.50;;;18.15;36.59
52032;BME280;38044;45.148;39.604;2024-03-25T11:47:47;99941.97;;;18.16;35.60
52032;BME280;38044;45.148;39.604;2024-03-25T11:50:15;99955.94;;;18.14;36.55
52032;BME280;38044;45.148;39.604;2024-03-25T11:52:41;99959.84;;;17.97;35.91
52032;BME280;38044;45.148;39.604;2024-03-25T11:55:08;99964.56;;;18.00;37.12
52032;BME280;38044;45.148;39.604;2024-03-25T11:57:35;99962.66;;;18.20;37.09
52032;BME280;38044;45.148;39.604;2024-03-25T12:00:02;99959.63;;;18.26;35.85
52032;BME280;38044;45.148;39.604;2024-03-25T12:02:32;99947.13;;;18.21;36.64
52032;BME280;38044;45.148;39.604;2024-03-25T12:04:58;99956.19;;;18.09;36.86
52032;BME280;38044;45.148;39.604;2024-03-25T12:07:24;99950.63;;;17.70;36.57
52032;BME280;38044;45.148;39.604;2024-03-25T12:09:50;99939.38;;;17.37;36.66
52032;BME280;38044;45.148;39.604;2024-03-25T12:12:37;99950.41;;;17.28;38.17
52032;BME280;38044;45.148;39.604;2024-03-25T12:15:05;99945.34;;;17.26;37.77
52032;BME280;38044;45.148;39.604;2024-03-25T12:17:33;99942.03;;;17.17;38.04
52032;BME280;38044;45.148;39.604;2024-03-25T12:20:03;99940.63;;;17.23;38.03
52032;BME280;38044;45.148;39.604;2024-03-25T12:22:32;99929.75;;;17.23;38.54
52032;BME280;38044;45.148;39.604;2024-03-25T12:25:00;99932.00;;;17.53;38.88
52032;BME280;38044;45.148;39.604;2024-03-25T12:27:28;99926.97;;;17.71;39.49
52032;BME280;38044;45.148;39.604;2024-03-25T12:30:08;99928.91;;;17.86;38.72
52032;BME280;38044;45.148;39.604;2024-03-25T12:32:42;99928.38;;;17.81;39.42
52032;BME280;38044;45.148;39.604;2024-03-25T12:35:08;99914.97;;;17.72;40.17
52032;BME280;38044;45.148;39.604;2024-03-25T12:37:42;99916.19;;;17.74;39.86
52032;BME280;38044;45.148;39.604;2024-03-25T12:40:10;99931.19;;;17.84;39.72
52032;BME280;38044;45.148;39.604;2024-03-25T12:42:37;99914.88;;;17.68;39.52
52032;BME280;38044;45.148;39.604;2024-03-25T12:45:04;99933.09;;;17.68;38.86
52032;BME280;38044;45.148;39.604;2024-03-25T12:47:31;99910.97;;;17.50;38.59